Time;durP1;ratioP1;P1;durP2;ratioP2;P2;SDS_P1;SDS_P2;PMS_P1;PMS_P2;Temp;Humidity;BMP_temperature;BMP_pressure;BME280_temperature;BME280_humidity;BME280_pressure;Samples;Min_cycle;Max_cycle;Signal;HPM_P1;HPM_P2
2020/12/25 00:01:30;;;;;;;0.40;0.20;;;;;;;4.94;100.00;100703.28;5036412;28;20817;-69
2020/12/25 00:03:58;;;;;;;1.63;0.50;;;;;;;4.96;100.00;100695.78;5036293;28;20459;-68
2020/12/25 00:06:26;;;;;;;0.40;0.30;;;;;;;4.97;100.00;100701.97;5036371;28;20999;-68
2020/12/25 00:08:52;;;;;;;0.40;0.23;;;;;;;4.81;100.00;100704.53;5036374;28;20443;-68
2020/12/25 00:11:19;;;;;;;0.40;0.30;;;;;;;4.90;100.00;100709.41;5036101;28;20465;-69
2020/12/25 00:13:45;;;;;;;0.40;0.30;;;;;;;4.96;100.00;100713.78;5036251;28;20459;-68
2020/12/25 00:16:11;;;;;;;0.70;0.70;;;;;;;4.77;100.00;100705.31;5036209;28;20439;-70
2020/12/25 00:18:38;;;;;;;0.60;0.60;;;;;;;4.83;100.00;100715.03;5036004;28;20451;-68
2020/12/25 00:21:05;;;;;;;0.40;0.20;;;;;;;4.88;100.00;100711.56;5036198;28;20518;-68
2020/12/25 00:23:32;;;;;;;0.40;0.30;;;;;;;4.88;100.00;100723.09;5035561;28;20525;-68
2020/12/25 00:25:58;;;;;;;0.40;0.27;;;;;;;4.90;100.00;100714.78;5035778;28;20427;-68
2020/12/25 00:28:24;;;;;;;0.40;0.30;;;;;;;4.96;100.00;100724.50;5035659;28;20485;-69
2020/12/25 00:30:50;;;;;;;0.50;0.40;;;;;;;4.82;100.00;100724.13;5035944;28;20928;-69
2020/12/25 00:33:16;;;;;;;0.40;0.30;;;;;;;4.90;100.00;100720.97;5035837;28;20442;-68
2020/12/25 00:35:43;;;;;;;0.40;0.30;;;;;;;4.94;100.00;100732.00;5035992;28;20456;-68
2020/12/25 00:38:10;;;;;;;1.17;0.50;;;;;;;4.99;100.00;100730.13;5035562;28;20475;-69
2020/12/25 00:40:41;;;;;;;0.40;0.30;;;;;;;5.04;100.00;100732.84;5035704;28;20478;-69
2020/12/25 00:43:08;;;;;;;0.40;0.30;;;;;;;4.95;100.00;100739.78;5035388;28;20435;-69
2020/12/25 00:45:35;;;;;;;0.40;0.20;;;;;;;5.00;100.00;100747.88;5035521;28;20814;-70
2020/12/25 00:48:01;;;;;;;0.50;0.30;;;;;;;4.94;100.00;100745.41;5035619;28;20481;-68
2020/12/25 00:50:27;;;;;;;0.53;0.53;;;;;;;4.93;100.00;100754.53;5035263;28;20941;-68
2020/12/25 00:52:54;;;;;;;0.60;0.50;;;;;;;4.92;100.00;100760.97;5035436;28;20489;-68
2020/12/25 00:55:21;;;;;;;0.40;0.27;;;;;;;4.91;100.00;100754.78;5035413;28;20463;-68
2020/12/25 00:57:47;;;;;;;1.27;1.10;;;;;;;4.97;100.00;100763.69;5035510;28;20439;-68
2020/12/25 01:00:13;;;;;;;0.40;0.30;;;;;;;4.90;100.00;100765.78;5035014;28;20475;-70
2020/12/25 01:02:39;;;;;;;0.50;0.40;;;;;;;4.93;100.00;100765.28;5035131;28;20447;-68
2020/12/25 01:05:05;;;;;;;0.60;0.60;;;;;;;4.96;100.00;100773.63;5035410;28;20463;-68
2020/12/25 01:07:31;;;;;;;0.40;0.30;;;;;;;4.85;100.00;100781.84;5034917;28;20447;-68
2020/12/25 01:09:58;;;;;;;0.40;0.30;;;;;;;4.73;100.00;100782.84;5035251;28;20466;-68
2020/12/25 01:12:25;;;;;;;0.53;0.53;;;;;;;4.72;100.00;100783.91;5035170;28;20475;-69
2020/12/25 01:14:51;;;;;;;0.40;0.30;;;;;;;4.76;100.00;100789.56;5035091;28;20495;-68
2020/12/25 01:17:17;;;;;;;0.40;0.20;;;;;;;4.66;100.00;100784.94;5035026;28;20438;-68
2020/12/25 01:19:43;;;;;;;0.40;0.23;;;;;;;4.64;100.00;100789.75;5034879;28;20491;-68
2020/12/25 01:22:09;;;;;;;0.40;0.30;;;;;;;4.63;100.00;100801.53;5034959;28;20493;-70
2020/12/25 01:24:35;;;;;;;0.40;0.30;;;;;;;4.62;100.00;100807.97;5034796;28;20516;-69
2020/12/25 01:27:02;;;;;;;0.40;0.37;;;;;;;4.70;100.00;100804.03;5034891;28;20443;-68
2020/12/25 01:29:29;;;;;;;0.70;0.30;;;;;;;4.62;100.00;100805.28;5034904;28;20478;-68
2020/12/25 01:31:55;;;;;;;0.40;0.30;;;;;;;4.65;100.00;100817.38;5034523;28;20450;-69
2020/12/25 01:34:21;;;;;;;0.40;0.30;;;;;;;4.54;100.00;100824.53;5034366;28;20498;-69
2020/12/25 01:36:47;;;;;;;1.00;0.97;;;;;;;4.57;100.00;100826.72;5034723;28;20816;-68
2020/12/25 01:39:13;;;;;;;0.40;0.30;;;;;;;4.57;100.00;100823.22;5034623;28;20539;-70
2020/12/25 01:41:39;;;;;;;0.40;0.30;;;;;;;4.57;100.00;100828.59;5034327;28;20612;-68
2020/12/25 01:44:05;;;;;;;0.50;0.33;;;;;;;4.51;100.00;100835.75;5034497;28;20876;-68
2020/12/25 01:46:33;;;;;;;0.40;0.30;;;;;;;4.40;100.00;100831.38;5034275;28;20457;-68
2020/12/25 01:48:59;;;;;;;0.40;0.30;;;;;;;4.39;100.00;100832.44;5034458;28;20529;-69
2020/12/25 01:51:26;;;;;;;0.40;0.30;;;;;;;4.41;100.00;100824.94;5034528;28;20859;-69
2020/12/25 01:53:52;;;;;;;0.40;0.30;;;;;;;4.40;100.00;100818.78;5033915;28;20540;-69
2020/12/25 01:56:19;;;;;;;0.40;0.23;;;;;;;4.36;100.00;100824.91;4994988;28;20449;-68
2020/12/25 01:58:45;;;;;;;0.40;0.30;;;;;;;4.33;100.00;100822.72;4994265;28;20437;-68
2020/12/25 02:01:12;;;;;;;0.40;0.33;;;;;;;4.25;100.00;100832.84;4994826;28;20433;-71
2020/12/25 02:03:39;;;;;;;0.40;0.37;;;;;;;4.25;100.00;100834.69;4994818;28;20472;-69
2020/12/25 02:06:05;;;;;;;0.50;0.30;;;;;;;4.31;100.00;100831.03;4994906;28;20536;-69
2020/12/25 02:08:31;;;;;;;0.40;0.30;;;;;;;4.37;100.00;100845.28;4995075;28;20448;-69
2020/12/25 02:10:57;;;;;;;0.40;0.30;;;;;;;4.29;100.00;100844.69;4994785;28;20507;-68
2020/12/25 02:13:24;;;;;;;0.40;0.30;;;;;;;4.29;99.83;100852.75;4994645;28;20473;-70
2020/12/25 02:15:51;;;;;;;0.67;0.50;;;;;;;4.29;100.00;100850.06;4994441;28;21004;-69
2020/12/25 02:18:17;;;;;;;0.40;0.30;;;;;;;4.28;100.00;100852.97;4994572;28;20824;-67
2020/12/25 02:20:44;;;;;;;0.40;0.30;;;;;;;4.24;99.46;100854.53;4994500;28;20515;-68
2020/12/25 02:23:11;;;;;;;0.40;0.30;;;;;;;4.25;99.73;100848.94;4994741;28;20449;-68
2020/12/25 02:25:37;;;;;;;0.40;0.30;;;;;;;4.15;98.26;100850.69;4994021;28;20988;-69
2020/12/25 02:28:03;;;;;;;0.40;0.30;;;;;;;4.12;98.23;100849.34;4994485;28;20856;-68
2020/12/25 02:30:29;;;;;;;0.40;0.30;;;;;;;4.23;98.79;100859.09;4994384;28;20444;-69
2020/12/25 02:32:56;;;;;;;0.40;0.23;;;;;;;4.29;98.83;100858.09;4994118;28;20479;-68
2020/12/25 02:35:22;;;;;;;0.40;0.23;;;;;;;4.26;97.98;100858.59;4993925;28;20982;-69
2020/12/25 02:37:48;;;;;;;0.40;0.30;;;;;;;4.28;97.28;100872.56;4994346;28;20950;-68
2020/12/25 02:40:15;;;;;;;0.40;0.30;;;;;;;4.23;96.82;100867.13;4994163;28;20923;-69
2020/12/25 02:42:43;;;;;;;0.40;0.30;;;;;;;4.26;96.64;100863.97;4994247;28;20453;-68
2020/12/25 02:45:09;;;;;;;0.40;0.30;;;;;;;4.35;97.43;100869.69;4994164;28;20881;-67
2020/12/25 02:47:35;;;;;;;0.40;0.20;;;;;;;4.39;97.03;100870.00;4994256;28;20472;-68
2020/12/25 02:50:02;;;;;;;0.40;0.30;;;;;;;4.25;96.06;100875.75;4994465;28;20469;-68
2020/12/25 02:52:28;;;;;;;0.40;0.30;;;;;;;4.22;96.32;100876.25;4993762;28;20444;-68
2020/12/25 02:54:54;;;;;;;0.40;0.20;;;;;;;4.33;96.51;100876.34;4993984;28;20469;-68
2020/12/25 02:57:21;;;;;;;0.40;0.30;;;;;;;4.41;96.63;100881.25;4993962;28;20503;-70
2020/12/25 02:59:47;;;;;;;0.40;0.20;;;;;;;4.37;96.22;100878.28;4993917;28;20516;-68
2020/12/25 03:02:15;;;;;;;0.40;0.30;;;;;;;4.30;96.65;100877.69;4993714;28;20476;-70
2020/12/25 03:04:41;;;;;;;0.60;0.40;;;;;;;4.36;96.24;100879.34;4993867;28;20527;-69
2020/12/25 03:07:07;;;;;;;0.40;0.30;;;;;;;4.39;96.41;100880.72;4993912;28;20441;-68
2020/12/25 03:09:33;;;;;;;0.40;0.30;;;;;;;4.29;96.68;100874.19;4992668;28;20485;-68
2020/12/25 03:11:59;;;;;;;0.40;0.20;;;;;;;4.18;96.97;100875.13;4993859;28;20493;-67
2020/12/25 03:14:26;;;;;;;0.40;0.30;;;;;;;4.22;96.58;100875.44;4993054;28;20559;-70
2020/12/25 03:16:53;;;;;;;0.40;0.30;;;;;;;4.12;96.38;100878.81;4993281;28;20456;-68
2020/12/25 03:19:19;;;;;;;0.40;0.30;;;;;;;4.10;96.30;100883.59;4993480;28;21009;-69
2020/12/25 03:21:45;;;;;;;0.50;0.30;;;;;;;4.16;96.95;100889.81;4993864;28;20452;-68
2020/12/25 03:24:11;;;;;;;0.40;0.30;;;;;;;4.27;97.04;100878.97;4993558;28;20508;-71
2020/12/25 03:26:38;;;;;;;0.87;0.80;;;;;;;4.33;97.66;100887.06;4993483;28;20453;-69
2020/12/25 03:29:04;;;;;;;0.40;0.20;;;;;;;4.28;96.96;100885.94;4993739;28;20452;-69
2020/12/25 03:31:31;;;;;;;0.40;0.30;;;;;;;4.25;96.76;100899.03;4993498;28;20452;-69
2020/12/25 03:33:57;;;;;;;0.40;0.30;;;;;;;4.23;96.45;100893.13;4993630;28;20464;-68
2020/12/25 03:36:23;;;;;;;0.40;0.30;;;;;;;4.32;96.70;100886.28;4993610;28;20472;-69
2020/12/25 03:38:50;;;;;;;0.40;0.30;;;;;;;4.37;97.02;100896.25;4993259;28;20481;-69
2020/12/25 03:41:16;;;;;;;0.40;0.30;;;;;;;4.41;96.79;100889.31;4993361;28;20495;-68
2020/12/25 03:43:42;;;;;;;0.40;0.30;;;;;;;4.41;96.68;100895.47;4993512;28;20469;-69
2020/12/25 03:46:08;;;;;;;0.40;0.30;;;;;;;4.45;96.56;100895.78;4993274;28;20970;-68
2020/12/25 03:48:35;;;;;;;0.40;0.30;;;;;;;4.47;96.31;100909.75;4993537;28;20445;-69
2020/12/25 03:51:01;;;;;;;0.40;0.30;;;;;;;4.52;96.34;100907.16;4993530;28;20807;-68
2020/12/25 03:53:28;;;;;;;0.40;0.30;;;;;;;4.50;95.99;100911.94;4993436;28;20487;-69
2020/12/25 03:55:54;;;;;;;0.40;0.20;;;;;;;4.51;95.74;100911.66;4993632;28;20449;-68
2020/12/25 03:58:20;;;;;;;0.50;0.40;;;;;;;4.54;95.33;100911.19;4993517;28;20451;-71
2020/12/25 04:00:46;;;;;;;0.40;0.20;;;;;;;4.51;95.28;100916.22;4993412;28;21004;-68
2020/12/25 04:03:13;;;;;;;0.40;0.20;;;;;;;4.37;96.79;100920.38;4993372;28;20819;-70
2020/12/25 04:05:40;;;;;;;0.40;0.20;;;;;;;4.36;96.44;100916.06;4993441;28;20448;-68
2020/12/25 04:08:06;;;;;;;0.50;0.37;;;;;;;4.37;97.58;100925.72;4993428;28;20451;-68
2020/12/25 04:10:33;;;;;;;0.53;0.40;;;;;;;4.31;96.86;100919.50;4993563;28;20475;-68
2020/12/25 04:13:00;;;;;;;0.40;0.30;;;;;;;4.28;96.61;100923.50;4993388;28;20479;-67
2020/12/25 04:15:26;;;;;;;0.40;0.30;;;;;;;4.26;97.09;100928.31;4992921;28;20473;-69
2020/12/25 04:17:53;;;;;;;0.40;0.30;;;;;;;4.30;98.03;100928.63;4993300;28;20491;-69
2020/12/25 04:20:19;;;;;;;0.40;0.30;;;;;;;4.36;97.91;100934.84;4993035;28;20516;-69
2020/12/25 04:22:46;;;;;;;0.40;0.20;;;;;;;4.34;97.67;100936.94;4997014;28;20445;-68
2020/12/25 04:25:12;;;;;;;0.40;0.30;;;;;;;4.34;98.30;100945.84;4996588;28;20492;-69
2020/12/25 04:27:38;;;;;;;0.40;0.20;;;;;;;4.24;98.32;100943.81;4996688;28;20468;-69
2020/12/25 04:30:05;;;;;;;0.50;0.40;;;;;;;4.26;99.41;100951.63;4996675;28;20445;-68
2020/12/25 04:32:31;;;;;;;0.40;0.30;;;;;;;4.28;98.99;100952.19;4996240;28;21221;-69
2020/12/25 04:34:57;;;;;;;0.40;0.30;;;;;;;4.35;99.15;100960.84;4996574;28;20460;-68
2020/12/25 04:37:24;;;;;;;0.40;0.30;;;;;;;4.35;98.53;100960.06;4996439;28;20449;-69
2020/12/25 04:39:51;;;;;;;0.40;0.20;;;;;;;4.35;98.70;100965.41;4996333;28;20528;-70
2020/12/25 04:42:17;;;;;;;0.40;0.23;;;;;;;4.29;98.06;100972.56;4996301;28;20441;-69
2020/12/25 04:44:43;;;;;;;0.40;0.30;;;;;;;4.25;97.37;100968.75;4996008;28;20492;-69
2020/12/25 04:47:10;;;;;;;0.40;0.30;;;;;;;4.05;96.83;100972.81;4996346;28;20473;-67
2020/12/25 04:49:37;;;;;;;0.40;0.30;;;;;;;3.99;96.90;100978.38;4996194;28;20982;-67
2020/12/25 04:52:04;;;;;;;0.40;0.30;;;;;;;4.05;97.26;100982.72;4998489;28;20472;-69
2020/12/25 04:54:30;;;;;;;0.40;0.30;;;;;;;3.90;96.99;100988.69;5035464;28;20467;-68
2020/12/25 04:56:58;;;;;;;0.50;0.40;;;;;;;3.91;96.92;100984.13;5035241;28;20852;-70
2020/12/25 04:59:26;;;;;;;0.40;0.30;;;;;;;3.93;97.25;100990.84;5035235;28;20486;-69
2020/12/25 05:01:54;;;;;;;0.40;0.30;;;;;;;3.84;96.56;100994.22;5035378;28;20448;-68
2020/12/25 05:04:21;;;;;;;0.40;0.30;;;;;;;3.98;96.98;100992.78;5035292;28;20469;-72
2020/12/25 05:06:48;;;;;;;0.40;0.30;;;;;;;4.03;97.10;100998.25;5035006;28;20875;-68
2020/12/25 05:09:16;;;;;;;0.40;0.30;;;;;;;4.08;97.08;101003.69;5035264;28;20443;-68
2020/12/25 05:11:42;;;;;;;0.40;0.30;;;;;;;4.18;97.63;101006.50;5035686;28;20469;-69
2020/12/25 05:14:10;;;;;;;0.50;0.40;;;;;;;4.20;97.40;101017.75;5035478;28;20529;-69
2020/12/25 05:16:39;;;;;;;0.40;0.20;;;;;;;4.23;97.97;101017.28;5035118;28;20479;-68
2020/12/25 05:19:06;;;;;;;0.60;0.43;;;;;;;3.96;97.79;101021.72;5035020;28;20478;-68
2020/12/25 05:21:38;;;;;;;0.40;0.27;;;;;;;3.98;99.02;101025.75;5034710;28;21043;-69
2020/12/25 05:24:06;;;;;;;1.47;1.27;;;;;;;4.05;99.64;101026.41;5034733;28;20475;-69
2020/12/25 05:26:33;;;;;;;0.40;0.30;;;;;;;4.02;99.34;101024.22;5034633;28;20431;-68
2020/12/25 05:29:00;;;;;;;0.40;0.30;;;;;;;4.00;99.62;101030.91;5034692;28;20972;-68
2020/12/25 05:31:27;;;;;;;0.40;0.30;;;;;;;3.97;99.76;101028.69;5034827;28;20469;-69
2020/12/25 05:33:57;;;;;;;0.40;0.20;;;;;;;3.90;99.26;101033.44;5058929;23;20494;-77
2020/12/25 05:36:29;;;;;;;0.40;0.30;;;;;;;3.79;99.59;101032.47;5034862;28;20530;-77
2020/12/25 05:38:56;;;;;;;0.40;0.30;;;;;;;3.68;100.00;101026.13;5035158;28;20431;-77
2020/12/25 05:41:24;;;;;;;0.40;0.20;;;;;;;3.72;100.00;101032.63;5034997;28;20550;-78
2020/12/25 05:43:53;;;;;;;0.40;0.30;;;;;;;3.77;100.00;101032.72;5034842;28;20472;-77
2020/12/25 05:46:19;;;;;;;1.37;1.23;;;;;;;3.80;100.00;101028.72;5035017;28;20572;-77
2020/12/25 05:48:51;;;;;;;0.40;0.30;;;;;;;3.83;100.00;101022.06;5034570;28;20439;-77
2020/12/25 05:51:17;;;;;;;0.40;0.20;;;;;;;3.86;100.00;101037.66;5035098;28;20451;-77
2020/12/25 05:53:45;;;;;;;0.40;0.30;;;;;;;3.78;100.00;101039.69;5034684;28;21067;-77
2020/12/25 05:56:14;;;;;;;0.40;0.30;;;;;;;3.77;100.00;101051.47;5034777;28;20821;-77
2020/12/25 05:58:44;;;;;;;0.50;0.30;;;;;;;3.59;100.00;101057.06;5034597;28;20932;-77
2020/12/25 06:01:11;;;;;;;0.40;0.30;;;;;;;3.69;100.00;101051.88;5034687;28;20578;-77
2020/12/25 06:03:38;;;;;;;0.40;0.30;;;;;;;3.68;100.00;101055.59;5034299;28;20840;-77
2020/12/25 06:06:12;;;;;;;0.70;0.43;;;;;;;3.69;100.00;101064.44;5034716;28;20455;-77
2020/12/25 06:08:47;;;;;;;0.40;0.30;;;;;;;3.69;100.00;101075.97;5034667;28;20514;-77
2020/12/25 06:11:16;;;;;;;0.40;0.30;;;;;;;3.75;100.00;101079.53;5034844;28;20550;-77
2020/12/25 06:13:43;;;;;;;0.40;0.20;;;;;;;3.76;100.00;101073.13;5034396;28;20512;-77
2020/12/25 06:16:13;;;;;;;0.40;0.30;;;;;;;3.78;100.00;101079.06;5034357;28;20450;-77
2020/12/25 06:18:49;;;;;;;0.40;0.30;;;;;;;3.80;100.00;101083.09;5034210;28;20454;-77
2020/12/25 06:21:22;;;;;;;0.40;0.30;;;;;;;3.84;100.00;101085.31;5033775;28;21006;-77
2020/12/25 06:23:48;;;;;;;0.40;0.27;;;;;;;3.85;100.00;101100.31;5034444;28;20468;-77
2020/12/25 06:26:18;;;;;;;0.63;0.40;;;;;;;3.85;100.00;101089.59;5034021;28;20789;-77
2020/12/25 06:28:45;;;;;;;0.50;0.40;;;;;;;3.89;100.00;101101.47;5034026;28;20433;-77
2020/12/25 06:31:35;;;;;;;0.40;0.20;;;;;;;3.83;100.00;101107.81;5034235;28;20443;-77
2020/12/25 06:34:03;;;;;;;0.40;0.30;;;;;;;3.85;100.00;101105.69;5033863;28;20977;-77
2020/12/25 06:36:32;;;;;;;0.40;0.30;;;;;;;3.85;100.00;101109.19;5034402;28;20424;-76
2020/12/25 06:38:58;;;;;;;0.40;0.30;;;;;;;3.87;100.00;101114.31;5033864;28;20446;-77
2020/12/25 06:41:26;;;;;;;0.40;0.30;;;;;;;3.77;100.00;101115.75;5034066;28;20790;-77
2020/12/25 06:43:54;;;;;;;0.40;0.30;;;;;;;3.79;100.00;101115.50;5033803;28;20482;-77
2020/12/25 06:46:29;;;;;;;0.40;0.30;;;;;;;3.75;100.00;101123.22;5034156;28;20446;-77
2020/12/25 06:49:00;;;;;;;0.40;0.20;;;;;;;3.68;100.00;101127.13;5034058;28;20521;-77
2020/12/25 06:51:27;;;;;;;0.40;0.20;;;;;;;3.55;100.00;101125.56;5034069;28;20450;-77
2020/12/25 06:53:57;;;;;;;0.40;0.20;;;;;;;3.64;100.00;101116.06;5033657;28;20478;-77
2020/12/25 06:56:23;;;;;;;0.40;0.20;;;;;;;3.69;100.00;101128.75;5033457;28;20991;-76
2020/12/25 06:58:51;;;;;;;0.40;0.20;;;;;;;3.68;100.00;101133.28;5033770;28;20439;-76
2020/12/25 07:01:19;;;;;;;0.83;0.40;;;;;;;3.64;100.00;101123.31;5033383;28;21004;-77
2020/12/25 07:03:45;;;;;;;0.40;0.20;;;;;;;3.73;100.00;101125.34;5033459;28;20513;-77
2020/12/25 07:06:12;;;;;;;0.40;0.30;;;;;;;3.74;100.00;101131.50;5033652;28;20453;-77
2020/12/25 07:08:50;;;;;;;0.40;0.30;;;;;;;3.83;100.00;101148.00;5033369;28;20455;-77
2020/12/25 07:11:18;;;;;;;0.40;0.27;;;;;;;3.82;100.00;101152.53;5033314;28;20988;-77
2020/12/25 07:13:45;;;;;;;0.40;0.30;;;;;;;3.82;100.00;101146.38;5033376;28;20461;-77
2020/12/25 07:16:11;;;;;;;0.40;0.30;;;;;;;3.78;99.90;101148.72;5033336;28;20501;-77
2020/12/25 07:18:37;;;;;;;0.40;0.30;;;;;;;3.74;100.00;101147.56;5033513;28;20451;-77
2020/12/25 07:21:05;;;;;;;0.40;0.30;;;;;;;3.78;100.00;101146.84;5033583;28;20506;-77
2020/12/25 07:23:31;;;;;;;0.40;0.30;;;;;;;3.78;99.49;101148.72;5033604;28;20475;-77
2020/12/25 07:25:58;;;;;;;0.40;0.20;;;;;;;3.69;98.91;101144.81;5033846;28;20454;-77
2020/12/25 07:28:27;;;;;;;0.40;0.30;;;;;;;3.65;99.00;101155.19;5033621;28;20486;-77
2020/12/25 07:30:54;;;;;;;0.40;0.30;;;;;;;3.54;98.91;101156.03;5033390;28;20443;-77
2020/12/25 07:33:21;;;;;;;0.40;0.30;;;;;;;3.56;99.14;101153.16;5033136;28;20994;-76
2020/12/25 07:35:48;;;;;;;0.40;0.30;;;;;;;3.52;98.21;101161.66;5033221;28;20455;-76
2020/12/25 07:38:15;;;;;;;0.40;0.20;;;;;;;3.50;98.21;101158.41;5033382;28;20505;-78
2020/12/25 07:40:42;;;;;;;0.40;0.20;;;;;;;3.54;98.67;101170.28;5033048;28;20490;-77
2020/12/25 07:43:08;;;;;;;0.40;0.20;;;;;;;3.49;98.41;101174.69;5033033;28;20937;-77
2020/12/25 07:45:37;;;;;;;0.40;0.20;;;;;;;3.53;98.73;101183.88;5033727;28;20459;-77
2020/12/25 07:48:04;;;;;;;0.40;0.20;;;;;;;3.49;98.92;101193.44;5033489;28;20447;-77
2020/12/25 07:50:38;;;;;;;0.40;0.30;;;;;;;3.56;98.52;101188.78;5033087;28;20435;-76
2020/12/25 07:53:12;;;;;;;0.40;0.20;;;;;;;3.60;97.65;101187.25;5033351;28;20427;-77
2020/12/25 07:55:39;;;;;;;0.40;0.30;;;;;;;3.56;97.80;101193.31;5033878;28;20524;-76
2020/12/25 07:58:06;;;;;;;0.70;0.50;;;;;;;3.57;98.45;101195.75;5037078;28;20795;-76
2020/12/25 08:00:32;;;;;;;0.40;0.30;;;;;;;3.58;97.21;101205.41;5036899;28;20571;-77
2020/12/25 08:03:00;;;;;;;0.60;0.40;;;;;;;3.56;97.15;101210.19;5037409;28;20450;-77
2020/12/25 08:05:29;;;;;;;0.40;0.20;;;;;;;3.57;97.39;101206.47;5036764;28;20467;-77
2020/12/25 08:07:56;;;;;;;0.40;0.30;;;;;;;3.60;97.63;101202.50;5036918;28;20485;-77
2020/12/25 08:10:23;;;;;;;0.40;0.30;;;;;;;3.61;97.24;101212.97;5037086;28;20610;-77
2020/12/25 08:12:51;;;;;;;0.40;0.30;;;;;;;3.64;97.28;101217.06;5036636;28;20964;-77
2020/12/25 08:15:19;;;;;;;0.40;0.30;;;;;;;3.63;96.61;101215.41;5036786;28;20522;-77
2020/12/25 08:17:49;;;;;;;0.40;0.30;;;;;;;3.66;96.64;101214.94;5036842;28;20518;-77
2020/12/25 08:20:16;;;;;;;0.40;0.30;;;;;;;3.67;96.66;101217.38;5036832;28;20573;-77
2020/12/25 08:22:42;;;;;;;0.40;0.30;;;;;;;3.68;96.56;101219.00;5037041;28;20941;-78
2020/12/25 08:25:08;;;;;;;0.40;0.30;;;;;;;3.66;95.64;101225.66;5036970;28;20455;-78
2020/12/25 08:27:36;;;;;;;0.50;0.40;;;;;;;3.68;95.88;101224.38;5036754;28;20497;-78
2020/12/25 08:30:05;;;;;;;0.70;0.60;;;;;;;3.62;95.88;101225.31;5036876;28;20447;-78
2020/12/25 08:32:32;;;;;;;0.40;0.30;;;;;;;3.68;95.63;101229.72;5036751;28;20443;-78
2020/12/25 08:35:15;;;;;;;0.40;0.30;;;;;;;3.71;95.89;101234.59;5036498;28;20490;-78
2020/12/25 08:37:55;;;;;;;0.40;0.20;;;;;;;3.75;95.76;101238.41;5037030;28;20466;-77
2020/12/25 08:40:22;;;;;;;0.40;0.20;;;;;;;3.79;95.95;101236.88;5036071;28;20835;-78
2020/12/25 08:42:49;;;;;;;0.40;0.30;;;;;;;3.85;96.31;101245.84;5036688;28;20466;-78
2020/12/25 08:45:20;;;;;;;0.43;0.33;;;;;;;3.95;96.58;101245.22;5037578;28;20509;-78
2020/12/25 08:48:08;;;;;;;0.40;0.30;;;;;;;4.00;96.22;101250.66;5036980;28;20442;-78
2020/12/25 08:50:35;;;;;;;0.40;0.30;;;;;;;3.99;95.53;101257.09;5037605;28;20439;-78
2020/12/25 08:53:17;;;;;;;0.90;0.73;;;;;;;3.90;95.48;101263.91;5037196;28;20454;-77
2020/12/25 08:55:45;;;;;;;0.40;0.30;;;;;;;4.00;95.44;101256.84;5037336;28;20435;-77
2020/12/25 08:58:11;;;;;;;0.73;0.43;;;;;;;4.07;94.14;101270.06;5038683;28;20451;-78
2020/12/25 09:00:38;;;;;;;0.50;0.40;;;;;;;4.10;93.53;101269.59;5036369;28;21074;-77
2020/12/25 09:03:04;;;;;;;0.50;0.40;;;;;;;4.15;93.39;101269.69;5035957;28;20454;-78
2020/12/25 09:05:31;;;;;;;0.40;0.27;;;;;;;4.16;93.34;101274.03;5036631;28;20467;-77
2020/12/25 09:07:57;;;;;;;0.40;0.30;;;;;;;4.19;93.96;101272.72;5038544;28;20439;-77
2020/12/25 09:10:24;;;;;;;0.40;0.30;;;;;;;4.24;94.29;101275.47;5037958;28;20455;-77
2020/12/25 09:12:51;;;;;;;0.70;0.40;;;;;;;4.27;93.15;101275.81;5036806;28;20455;-77
2020/12/25 09:15:17;;;;;;;0.40;0.20;;;;;;;4.29;93.32;101273.72;5036198;28;20471;-78
2020/12/25 09:17:43;;;;;;;0.40;0.20;;;;;;;4.30;93.36;101271.84;5035907;28;20451;-77
2020/12/25 09:20:09;;;;;;;0.40;0.30;;;;;;;4.29;92.92;101272.88;5035652;28;20526;-78
2020/12/25 09:22:36;;;;;;;0.40;0.27;;;;;;;4.36;92.33;101278.09;5035837;28;20470;-77
2020/12/25 09:25:02;;;;;;;0.50;0.37;;;;;;;4.41;91.73;101275.50;5036497;28;20486;-77
2020/12/25 09:27:29;;;;;;;0.40;0.30;;;;;;;4.42;91.58;101285.16;5036881;28;20447;-78
2020/12/25 09:29:55;;;;;;;0.87;0.40;;;;;;;4.46;91.54;101286.31;5037373;28;20447;-77
2020/12/25 09:32:22;;;;;;;0.40;0.27;;;;;;;4.49;91.37;101277.78;5035679;28;20817;-78
2020/12/25 09:34:48;;;;;;;0.40;0.27;;;;;;;4.47;90.68;101280.72;5035411;28;20471;-77
2020/12/25 09:37:14;;;;;;;0.40;0.30;;;;;;;4.46;90.66;101283.63;5035760;28;20454;-77
2020/12/25 09:39:40;;;;;;;0.50;0.30;;;;;;;4.44;90.76;101291.13;5034984;28;20873;-77
2020/12/25 09:42:06;;;;;;;0.40;0.30;;;;;;;4.47;90.65;101287.94;5037044;28;20447;-78
2020/12/25 09:44:34;;;;;;;0.40;0.30;;;;;;;4.52;90.15;101283.47;5035277;28;20471;-78
2020/12/25 09:47:00;;;;;;;0.40;0.30;;;;;;;4.58;90.52;101289.75;5036689;28;20806;-78
2020/12/25 09:49:26;;;;;;;0.60;0.40;;;;;;;4.55;90.07;101287.53;5035472;28;20459;-78
2020/12/25 09:51:52;;;;;;;0.50;0.40;;;;;;;4.58;89.90;101288.94;5036791;28;20482;-78
2020/12/25 09:54:19;;;;;;;0.40;0.30;;;;;;;4.54;89.91;101297.47;5035359;28;20475;-77
2020/12/25 09:56:48;;;;;;;0.40;0.20;;;;;;;4.50;89.52;101304.34;5035825;28;20446;-78
2020/12/25 09:59:15;;;;;;;0.40;0.30;;;;;;;4.53;89.28;101305.75;5035119;28;20439;-78
2020/12/25 10:01:42;;;;;;;0.40;0.33;;;;;;;4.58;89.32;101303.16;5034694;28;20539;-77
2020/12/25 10:04:08;;;;;;;0.40;0.30;;;;;;;4.53;89.71;101298.53;5037324;28;20471;-78
2020/12/25 10:06:34;;;;;;;0.90;0.50;;;;;;;4.68;90.02;101307.88;5036406;28;20443;-78
2020/12/25 10:09:01;;;;;;;0.67;0.50;;;;;;;4.74;90.12;101302.34;5035693;28;20454;-78
2020/12/25 10:11:27;;;;;;;0.40;0.20;;;;;;;4.69;88.22;101304.97;5035125;28;20458;-77
2020/12/25 10:13:53;;;;;;;0.40;0.30;;;;;;;4.75;88.49;101295.91;5033848;28;20478;-78
2020/12/25 10:16:20;;;;;;;0.50;0.30;;;;;;;4.73;87.87;101308.75;5034598;28;20804;-77
2020/12/25 10:18:47;;;;;;;0.40;0.30;;;;;;;4.64;88.64;101306.72;5034037;28;20451;-79
2020/12/25 10:21:17;;;;;;;0.40;0.30;;;;;;;4.52;89.00;101309.50;5034263;28;20490;-79
2020/12/25 10:23:43;;;;;;;0.40;0.30;;;;;;;4.53;87.90;101311.13;5034536;28;20474;-78
2020/12/25 10:26:10;;;;;;;0.50;0.30;;;;;;;4.55;88.39;101309.81;5035419;28;20489;-79
2020/12/25 10:28:36;;;;;;;0.40;0.30;;;;;;;4.56;88.83;101305.28;5034582;28;20447;-78
2020/12/25 10:31:03;;;;;;;0.40;0.30;;;;;;;4.27;89.24;101310.66;5033929;28;20550;-78
2020/12/25 10:33:29;;;;;;;0.40;0.40;;;;;;;4.34;89.63;101307.84;5034220;28;20448;-78
2020/12/25 10:35:56;;;;;;;0.40;0.30;;;;;;;4.44;89.58;101313.38;5034302;28;20458;-78
2020/12/25 10:38:22;;;;;;;1.43;0.77;;;;;;;4.51;88.78;101321.25;5034972;28;20500;-78
2020/12/25 10:40:48;;;;;;;0.40;0.30;;;;;;;4.47;88.83;101315.59;5034510;28;20483;-78
2020/12/25 10:43:15;;;;;;;0.50;0.40;;;;;;;4.46;89.18;101324.66;5033815;28;20968;-78
2020/12/25 10:45:41;;;;;;;0.50;0.40;;;;;;;4.41;89.35;101323.78;5034647;28;20443;-77
2020/12/25 10:48:09;;;;;;;0.40;0.30;;;;;;;4.47;89.40;101325.47;5035175;28;20439;-78
2020/12/25 10:50:35;;;;;;;0.40;0.30;;;;;;;4.49;90.13;101331.44;5034646;28;20447;-77
2020/12/25 10:53:02;;;;;;;0.40;0.30;;;;;;;4.54;89.31;101331.53;5034260;28;20501;-78
2020/12/25 10:55:28;;;;;;;0.40;0.30;;;;;;;4.47;89.52;101330.84;5034198;28;21058;-78
2020/12/25 10:57:54;;;;;;;0.50;0.40;;;;;;;4.48;89.23;101335.19;5034298;28;21022;-78
2020/12/25 11:00:21;;;;;;;0.40;0.30;;;;;;;4.53;89.26;101332.59;5033620;28;20603;-78
2020/12/25 11:02:47;;;;;;;30.97;1.90;;;;;;;4.42;90.05;101328.88;5033994;28;20443;-77
2020/12/25 11:05:14;;;;;;;0.40;0.30;;;;;;;4.49;90.34;101331.44;5035169;28;20474;-79
2020/12/25 11:07:40;;;;;;;0.40;0.20;;;;;;;4.50;89.66;101338.41;5034437;28;20457;-78
2020/12/25 11:10:08;;;;;;;0.53;0.40;;;;;;;4.48;88.91;101338.66;5034056;28;20438;-78
2020/12/25 11:12:35;;;;;;;0.50;0.40;;;;;;;4.46;88.79;101332.72;5034027;28;20435;-79
2020/12/25 11:15:01;;;;;;;0.60;0.50;;;;;;;4.42;89.04;101336.94;5034135;28;20459;-79
2020/12/25 11:17:27;;;;;;;0.40;0.30;;;;;;;4.48;89.42;101332.50;5033785;28;20893;-77
2020/12/25 11:19:55;;;;;;;0.40;0.30;;;;;;;4.42;88.94;101331.56;5033891;28;20494;-77
2020/12/25 11:22:22;;;;;;;1.70;0.60;;;;;;;4.43;88.33;101338.59;5014740;28;20475;-78
2020/12/25 11:24:48;;;;;;;0.40;0.30;;;;;;;4.41;88.56;101339.88;5014484;28;20526;-77
2020/12/25 11:27:16;;;;;;;0.40;0.30;;;;;;;4.29;87.36;101338.06;5014570;28;20447;-77
2020/12/25 11:29:43;;;;;;;0.40;0.30;;;;;;;4.39;88.04;101336.63;5014617;28;20448;-78
2020/12/25 11:32:09;;;;;;;0.40;0.30;;;;;;;4.49;87.06;101337.63;5018732;28;20447;-78